Monday, January 22, 2018, 8:48 AM EST

KMDT, Harrisburg International Airport

Location: Middletown, PA, United States Lat: 40.2
Local Time: 8:48 AM EST (13:48 GMT) Lon: -76.767
Time Zone: US/Eastern Elev: 308 ft

Show me the last for .
Show Decoded

2018-01-22 07:56 METAR KMDT 221256Z 00000KT 4SM BR OVC100 04/03 A3013 RMK AO2 SLP207 T00390028 =
2018-01-22 06:56 METAR KMDT 221156Z 00000KT 5SM BR OVC100 03/03 A3012 RMK AO2 SLP202 60000
                 T00330028 10050 20028 53003 =
2018-01-22 05:56 METAR KMDT 221056Z 10004KT 5SM BR OVC100 03/02 A3010 RMK AO2 SLP196 T00330022 $
                 =
2018-01-22 04:56 METAR KMDT 220956Z 00000KT 5SM BR SCT048 OVC090 03/02 A3011 RMK AO2 SLP198
                 T00330022 $ =
2018-01-22 03:56 METAR KMDT 220856Z 00000KT 6SM BR BKN041 OVC049 04/03 A3011 RMK AO2 SLP197 60000
                 T00390028 58001 $ =
2018-01-22 02:56 METAR KMDT 220756Z 00000KT 6SM BR SCT060 OVC095 04/03 A3011 RMK AO2 RAE02 SLP198
                 P0000 T00440028 $ =
2018-01-22 01:56 METAR KMDT 220656Z 35003KT 7SM -RA BR SCT041 BKN060 OVC075 04/03 A3012 RMK AO2
                 RAB43 SLP201 P0000 T00440028 $ =
2018-01-22 00:56 METAR KMDT 220556Z 00000KT 10SM OVC044 05/03 A3011 RMK AO2 RAE16 SLP199 P0000
                 60000 T00500028 10083 20039 58004 $ =
2018-01-21 23:56 METAR KMDT 220456Z 30003KT 8SM -RA BR OVC045 05/03 A3013 RMK AO2 RAB52 SLP205
                 P0000 T00500028 401111039 $ =
2018-01-21 22:56 METAR KMDT 220356Z 10003KT 10SM OVC050 06/03 A3012 RMK AO2 SLP202 T00610028 $ =
2018-01-21 21:56 METAR KMDT 220256Z 00000KT 10SM BKN050 OVC080 06/03 A3012 RMK AO2 SLP203
                 T00560028 58002 $ =
2018-01-21 20:56 METAR KMDT 220156Z 10004KT 10SM OVC048 08/03 A3012 RMK AO2 SLP204 T00780033 $ =
2018-01-21 19:56 METAR KMDT 220056Z 11004KT 10SM SCT042 OVC080 04/02 A3013 RMK AO2 SLP206
                 T00440022 $ =
2018-01-21 18:56 METAR KMDT 212356Z 15005KT 10SM BKN040 OVC080 06/03 A3013 RMK AO2 SLP206
                 T00560033 10111 20044 53006 $ =
2018-01-21 17:56 METAR KMDT 212256Z 00000KT 10SM FEW039 OVC080 07/03 A3012 RMK AO2 SLP203
                 T00670033 $ =
2018-01-21 16:56 METAR KMDT 212156Z 14004KT 10SM BKN037 OVC080 07/03 A3012 RMK AO2 SLP202
                 T00720033 $ =
2018-01-21 15:56 METAR KMDT 212056Z 11003KT 10SM BKN037 BKN080 10/04 A3011 RMK AO2 SLP200
                 T01000044 56013 $ =
2018-01-21 14:56 METAR KMDT 211956Z COR 12005KT 10SM BKN046 BKN070 11/03 A3012 RMK AO2 SLP203
                 T01060033 $ =
2018-01-21 13:56 METAR KMDT 211856Z 13004KT 10SM BKN035 OVC070 09/03 A3012 RMK AO2 SLP203 BINOVC
                 T00940033 =
2018-01-21 12:56 METAR KMDT 211756Z 00000KT 9SM FEW024 OVC031 04/01 A3015 RMK AO2 SLP213
                 T00440011 10067 20006 56017 =
2018-01-21 12:54 METAR KMDT 211754Z 00000KT 9SM FEW024 OVC031 04/01 A3015 RMK AO2 =
2018-01-21 11:56 METAR KMDT 211656Z 00000KT 9SM OVC024 03/01 A3018 RMK AO2 SLP223 T00330006 =
2018-01-21 10:56 METAR KMDT 211556Z 00000KT 9SM BKN024 OVC030 03/00 A3020 RMK AO2 SLP231
                 T00330000 =
2018-01-21 09:56 METAR KMDT 211456Z 00000KT 9SM OVC026 03/01 A3020 RMK AO2 SLP230 T00280006 51016
                 =
2018-01-21 08:56 METAR KMDT 211356Z 00000KT 9SM OVC028 02/00 A3019 RMK AO2 SLP227 T00170000 =

Support USWX by starting your Amazon purchase here.